Airfield :
LOGIN :

Register | Disclaimer

   EN    FR    IT 

 










Legend :    VFR   Marginal VFR   IFR   Intensive IFR   Very Intensive IFR
Visi :
Ceiling :
>= 8 km
>= 3000ft
5 to 8 km
1000 to 3000 ft
1500m to 5 km
500 to 1000 ft
800 to 1500m
200 to 500 ft
< 800m
< 200 ft
Symbols :   Thunderstorms  Fog  Heavy snow  Heavy precipitations  Wind > 20 kt
SIGMETs :     Misc.  Thunderstorms  Icing  Turbulence  Mountain Waves  Volcanic Ashes






- Airport Elevation : 1 ft


EGCK - Caernarfon

CURRENT METAR :
  • 300420Z AUTO 16006KT 120V180 9999 OVC045/// 08/04 Q1021

EXPIRED METARs :
  • 300350Z AUTO VRB03KT 9999 OVC045/// 08/04 Q1021
  • 300320Z AUTO VRB03KT 9999 OVC044/// 08/04 Q1021
  • 300250Z AUTO VRB03KT 9999 OVC044/// 08/04 Q1020
  • 300220Z AUTO 13004KT 070V180 9999 OVC043/// 08/04 Q1020
  • 300150Z AUTO 14004KT 100V190 9999 OVC043/// 08/04 Q1020
  • 300120Z AUTO 13005KT 100V170 9999 OVC043/// 08/04 Q1020

TAF TAF EGCK
Valid from the 30 at 03:00 until the 30 at 12:00 UTC


300158Z 3003/3012 14005KT 9999 SCT045
PROB30
TEMPO 3003/3012 7000



MET'MAP, your aeronautical weather chart ! - Copyright ORBIFLY December 2007 - Disclaimer

ORBIFLY MET'MAP TEAM :

Programming & Development : Alexandra Zaïnal
Original concept : Baudouin d'Aumeries
Technical & hardware support : Manuel Goepfert
Assistance : Marc-Olivier Méhu




SOURCES & CREDITS :

   NOAA